x

Central Dixon Entrance Buoy (46145) Wave Buoy

2:00am - Wed 16th Apr 2014 All times are PDT. -7 hours from GMT.

  • Sig Wave height 6.6ft
  • Peak Period 13s
  • Wind
    18mph, 22mph gusts
  • Sea Temp 44°f
  • Air Temp 44°f
  • Sea Pressure 1011.9mb
  • Central Dixon Entrance Buoy
  • Central Dixon Entrance Buoy

More Historic Weather Station data

Upgrade to MSW Pro to gain access to the past 30 days of data for over 8000 Wavebouys and Weather Stations around the globe.

Join Pro

Comparision Forecast

View Surf forecast
   
Wed 04/16 2:00am 6.5ft 13s 18 22 mph 1011.9mb 44f 44f
1:00am 7ft 12s 13 18 mph 1012.3mb 44f 45f
12:00am 6.5ft 12s 11 16 mph 1013mb 45f 45f
Tue 04/15 11:00pm 7ft 12s 11 16 mph 1013.3mb 45f 45f
10:00pm 6.5ft 13s 7 9 mph 1013.5mb 45f 44f
9:00pm  -   -  2
mph
- - 44f
8:00pm 5ft 14s 2 4 mph 1013.5mb 45f 44f
7:00pm 4.5ft 14s  -  2 mph 1013.6mb 45f 45f
6:00pm 3.5ft 11s 2
mph
1013.5mb 45f 45f
4:00pm 3.5ft 12s 9 11 mph 1013.3mb 44f 45f
3:00pm 3.5ft 12s 13 16 mph 1013mb 45f 45f
2:00pm 3.5ft 11s 13 16 mph 1013.1mb 44f 45f
1:00pm 3ft 11s 13 16 mph 1013mb 44f 44f
12:00pm 4ft 8s 9 11 mph 1013.2mb 45f 44f
11:00am 4.5ft 12s 7 9 mph 1013.1mb 44f 44f
10:00am 5ft 12s 7 9 mph 1013.1mb 44f 44f
9:00am 5.5ft 10s 7 9 mph 1013.1mb 44f 44f
8:00am 4.5ft 12s 9 11 mph 1012.8mb 44f 44f
7:00am 4.5ft 10s 7 9 mph 1012.5mb 44f 44f
6:00am 4ft 13s 9
mph
1012.1mb 44f 43f
5:00am 4ft 10s 4
mph
1011.9mb 44f 43f
4:00am 4ft 10s 9 11 mph 1011.7mb 44f 42f
3:00am 3.5ft 10s 9 11 mph 1011.6mb 44f 42f
2:00am 4.5ft 10s 7
mph
1011.5mb 44f 43f
1:00am 4ft 10s 9 13 mph 1011mb 44f 43f
12:00am 4.5ft 11s 13 18 mph 1010.7mb 44f 42f
Mon 04/14 11:00pm 5ft 10s 13 20 mph 1010.5mb 44f 43f
10:00pm 5ft 11s 11 13 mph 1010.5mb 44f 43f
9:00pm 5ft 10s 11 16 mph 1010.1mb 44f 43f
8:00pm 5ft 11s 9 11 mph 1009.9mb 44f 43f
7:00pm 5ft 12s 9 11 mph 1009.7mb 44f 43f
6:00pm 4.5ft 12s 9 11 mph 1009.3mb 44f 44f
5:00pm 4.5ft 13s 11 13 mph 1008.9mb 44f 45f
4:00pm 3.5ft 12s 11 13 mph 1008.8mb 44f 44f
3:00pm 4ft 11s 13 16 mph 1009mb 44f 45f
2:00pm 3.5ft 11s 18 20 mph 1009.2mb 44f 45f
1:00pm 3.5ft 12s 11 16 mph 1009.9mb 44f 44f
12:00pm 3ft 12s 13 16 mph 1010.5mb 44f 44f
11:00am 4ft 10s 13
mph
1011.2mb 44f 45f
10:00am 4ft 12s 4 7 mph 1011.8mb 44f 45f
9:00am 4ft 12s 9 11 mph 1012.4mb 44f 44f
8:00am 4ft 12s 11 13 mph 1012.9mb 44f 45f
7:00am 3.5ft 14s 11 13 mph 1013.8mb 44f 45f
6:00am 3ft 12s 9 13 mph 1014.3mb 44f 45f
5:00am 3.5ft 14s 13 16 mph 1014.7mb 44f 45f
4:00am 3.5ft 14s 11 13 mph 1015.6mb 44f 45f
3:00am 3.5ft 12s 9 11 mph 1016.4mb 44f 44f
2:00am 3ft 13s 9 11 mph 1017.1mb 44f 43f
1:00am 3ft 13s 11 13 mph 1018mb 44f 43f
12:00am 3.5ft 14s 11
mph
1019.2mb 44f 44f
Sun 04/13 11:00pm 3.5ft 12s 9 11 mph 1019.7mb 44f 45f
10:00pm 3.5ft 11s 9 11 mph 1020.7mb 44f 45f
9:00pm 3.5ft 14s 9 11 mph 1021.3mb 44f 46f
8:00pm 3.5ft 13s 11 13 mph 1021.4mb 44f 45f
7:00pm 3.5ft 14s 13 16 mph 1021.9mb 45f 45f
6:00pm 3.5ft 14s 13 16 mph 1022.9mb 44f 45f
5:00pm 3ft 14s 11 13 mph 1023.5mb 45f 45f
4:00pm 2.5ft 14s 13 16 mph 1023.9mb 44f 45f
3:00pm 2.5ft 14s 13 16 mph 1024.5mb 44f 45f
2:00pm 2.5ft 14s 11 13 mph 1024.9mb 44f 44f
1:00pm 2.5ft 15s 11 13 mph 1025.1mb 44f 44f
12:00pm 2.5ft 14s 9 11 mph 1025.3mb 44f 44f
11:00am 2.5ft 14s 9 11 mph 1025.4mb 44f 44f
10:00am 2.5ft 14s 7 9 mph 1025.5mb 44f 44f
9:00am 3.5ft 14s 7 9 mph 1025.5mb 44f 44f
8:00am 3.5ft 14s 9
mph
1025.4mb 44f 44f
7:00am 3.5ft 10s 7 9 mph 1025.3mb 44f 43f
6:00am 3.5ft 14s 2 4 mph 1025.7mb 44f 43f
5:00am 3.5ft 16s 2
mph
1025.7mb 44f 43f
4:00am 3.5ft 15s  -  mph 1025.6mb 44f 43f
3:00am 3.5ft 14s 2 4 mph 1025.7mb 44f 44f
2:00am 3ft 14s 4
mph
1025.7mb 44f 44f
1:00am 3.5ft 15s 7
mph
1025.6mb 44f 44f
12:00am 3.5ft 10s 9
mph
1025.6mb 44f 44f
Sat 04/12 11:00pm 3.5ft 10s 9
mph
1025.6mb 44f 44f
10:00pm 4ft 10s 7 9 mph 1025.6mb 44f 44f
9:00pm 4.5ft 9s 4 7 mph 1025.8mb 44f 44f
8:00pm 4.5ft 9s 4 7 mph 1025.8mb 44f 44f
7:00pm 4.5ft 10s 4
mph
1026.1mb 45f 46f
6:00pm 4.5ft 10s 4 7 mph 1026.3mb 45f 45f
5:00pm 4.5ft 10s 4 7 mph 1026.8mb 46f 45f
4:00pm 4.5ft 11s 2 4 mph 1027.3mb 47f 45f
3:00pm 4.5ft 11s 2
mph
1027.3mb 47f 46f
2:00pm 4.5ft 10s  -  mph 1027.2mb 46f 45f
1:00pm 4.5ft 10s  -  2 mph 1027.1mb 45f 44f
12:00pm 4ft 10s 4
mph
1027mb 44f 43f
11:00am 4ft 10s 4 7 mph 1026.9mb 44f 43f